sensor_id;sensor_type;location;lat;lon;timestamp;pressure;altitude;pressure_sealevel;temperature;humidity
72055;BME280;59936;51.490;5.436;2023-09-07T00:00:59;101785.16;;;17.50;74.47
72055;BME280;59936;51.490;5.436;2023-09-07T00:05:35;101789.75;;;17.35;74.49
72055;BME280;59936;51.490;5.436;2023-09-07T00:08:05;101783.88;;;17.31;73.96
72055;BME280;59936;51.490;5.436;2023-09-07T00:10:33;101783.22;;;17.29;74.04
72055;BME280;59936;51.490;5.436;2023-09-07T00:13:03;101787.13;;;17.27;74.21
72055;BME280;59936;51.490;5.436;2023-09-07T00:15:36;101780.88;;;17.26;74.42
72055;BME280;59936;51.490;5.436;2023-09-07T00:18:06;101778.16;;;17.26;74.54
72055;BME280;59936;51.490;5.436;2023-09-07T00:20:34;101777.69;;;17.23;74.62
72055;BME280;59936;51.490;5.436;2023-09-07T00:23:04;101780.78;;;17.20;74.81
72055;BME280;59936;51.490;5.436;2023-09-07T00:25:33;101776.59;;;17.17;75.16
72055;BME280;59936;51.490;5.436;2023-09-07T00:28:02;101781.53;;;17.14;75.38
72055;BME280;59936;51.490;5.436;2023-09-07T00:30:30;101776.50;;;17.11;75.80
72055;BME280;59936;51.490;5.436;2023-09-07T00:32:59;101776.50;;;17.11;75.80
72055;BME280;59936;51.490;5.436;2023-09-07T00:35:27;101767.91;;;17.07;75.75
72055;BME280;59936;51.490;5.436;2023-09-07T00:37:56;101771.63;;;17.06;75.78
72055;BME280;59936;51.490;5.436;2023-09-07T00:40:24;101763.03;;;17.02;75.73
72055;BME280;59936;51.490;5.436;2023-09-07T00:42:54;101769.47;;;17.01;75.73
72055;BME280;59936;51.490;5.436;2023-09-07T00:45:22;101762.38;;;17.00;75.76
72055;BME280;59936;51.490;5.436;2023-09-07T00:47:51;101759.84;;;16.99;75.82
72055;BME280;59936;51.490;5.436;2023-09-07T00:50:20;101752.13;;;16.96;75.91
72055;BME280;59936;51.490;5.436;2023-09-07T00:52:49;101756.88;;;16.94;75.99
72055;BME280;59936;51.490;5.436;2023-09-07T00:55:18;101760.78;;;16.91;76.12
72055;BME280;59936;51.490;5.436;2023-09-07T00:57:47;101769.06;;;16.90;76.30
72055;BME280;59936;51.490;5.436;2023-09-07T01:00:16;101770.09;;;16.89;76.31
72055;BME280;59936;51.490;5.436;2023-09-07T01:02:45;101772.81;;;16.89;76.38
72055;BME280;59936;51.490;5.436;2023-09-07T01:05:14;101772.81;;;16.89;76.38
72055;BME280;59936;51.490;5.436;2023-09-07T01:07:46;101768.78;;;16.85;76.37
72055;BME280;59936;51.490;5.436;2023-09-07T01:10:18;101767.94;;;16.84;76.40
72055;BME280;59936;51.490;5.436;2023-09-07T01:12:47;101771.84;;;16.82;76.35
72055;BME280;59936;51.490;5.436;2023-09-07T01:15:16;101767.66;;;16.79;76.36
72055;BME280;59936;51.490;5.436;2023-09-07T01:17:45;101769.69;;;16.77;76.33
72055;BME280;59936;51.490;5.436;2023-09-07T01:20:15;101769.69;;;16.77;76.33
72055;BME280;59936;51.490;5.436;2023-09-07T01:22:46;101762.16;;;16.72;76.49
72055;BME280;59936;51.490;5.436;2023-09-07T01:25:15;101763.38;;;16.70;76.56
72055;BME280;59936;51.490;5.436;2023-09-07T01:27:44;101764.38;;;16.69;76.67
72055;BME280;59936;51.490;5.436;2023-09-07T01:30:14;101763.72;;;16.67;76.74
72055;BME280;59936;51.490;5.436;2023-09-07T01:32:43;101753.94;;;16.66;76.70
72055;BME280;59936;51.490;5.436;2023-09-07T01:35:14;101756.81;;;16.64;76.70
72055;BME280;59936;51.490;5.436;2023-09-07T01:37:44;101755.13;;;16.63;76.86
72055;BME280;59936;51.490;5.436;2023-09-07T01:40:13;101755.13;;;16.63;76.86
72055;BME280;59936;51.490;5.436;2023-09-07T01:42:42;101748.59;;;16.58;76.87
72055;BME280;59936;51.490;5.436;2023-09-07T01:45:10;101747.91;;;16.56;77.05
72055;BME280;59936;51.490;5.436;2023-09-07T01:47:39;101750.81;;;16.54;77.04
72055;BME280;59936;51.490;5.436;2023-09-07T01:50:08;101755.59;;;16.52;77.15
72055;BME280;59936;51.490;5.436;2023-09-07T01:52:36;101750.34;;;16.51;77.17
72055;BME280;59936;51.490;5.436;2023-09-07T01:55:05;101750.34;;;16.51;77.17
72055;BME280;59936;51.490;5.436;2023-09-07T01:57:34;101739.06;;;16.47;77.13
72055;BME280;59936;51.490;5.436;2023-09-07T02:00:02;101747.34;;;16.46;77.16
72055;BME280;59936;51.490;5.436;2023-09-07T02:02:31;101745.84;;;16.43;77.26
72055;BME280;59936;51.490;5.436;2023-09-07T02:05:00;101746.88;;;16.42;77.37
72055;BME280;59936;51.490;5.436;2023-09-07T02:07:28;101748.91;;;16.40;77.45
72055;BME280;59936;51.490;5.436;2023-09-07T02:09:57;101748.91;;;16.40;77.45
72055;BME280;59936;51.490;5.436;2023-09-07T02:12:26;101746.75;;;16.35;77.48
72055;BME280;59936;51.490;5.436;2023-09-07T02:14:55;101744.06;;;16.35;77.51
72055;BME280;59936;51.490;5.436;2023-09-07T02:17:25;101749.81;;;16.32;77.56
72055;BME280;59936;51.490;5.436;2023-09-07T02:19:54;101743.59;;;16.32;77.57
72055;BME280;59936;51.490;5.436;2023-09-07T02:22:22;101743.78;;;16.30;77.55
72055;BME280;59936;51.490;5.436;2023-09-07T02:24:51;101747.50;;;16.29;77.58
72055;BME280;59936;51.490;5.436;2023-09-07T02:27:19;101745.81;;;16.28;77.60
72055;BME280;59936;51.490;5.436;2023-09-07T02:29:48;101741.63;;;16.26;77.68
72055;BME280;59936;51.490;5.436;2023-09-07T02:32:16;101747.03;;;16.26;77.80
72055;BME280;59936;51.490;5.436;2023-09-07T02:34:45;101747.03;;;16.26;77.80
72055;BME280;59936;51.490;5.436;2023-09-07T02:37:14;101739.63;;;16.20;77.86
72055;BME280;59936;51.490;5.436;2023-09-07T02:39:42;101733.38;;;16.19;78.06
72055;BME280;59936;51.490;5.436;2023-09-07T02:42:11;101740.81;;;16.17;78.15
72055;BME280;59936;51.490;5.436;2023-09-07T02:44:39;101742.88;;;16.15;78.17
72055;BME280;59936;51.490;5.436;2023-09-07T02:47:08;101742.03;;;16.15;78.12
72055;BME280;59936;51.490;5.436;2023-09-07T02:49:37;101744.25;;;16.11;78.17
72055;BME280;59936;51.490;5.436;2023-09-07T02:52:05;101741.53;;;16.11;78.17
72055;BME280;59936;51.490;5.436;2023-09-07T02:54:34;101740.25;;;16.07;78.22
72055;BME280;59936;51.490;5.436;2023-09-07T02:57:02;101734.00;;;16.06;78.25
72055;BME280;59936;51.490;5.436;2023-09-07T02:59:31;101741.44;;;16.04;78.29
72055;BME280;59936;51.490;5.436;2023-09-07T03:02:00;101736.88;;;16.05;78.32
72055;BME280;59936;51.490;5.436;2023-09-07T03:04:28;101736.88;;;16.05;78.32
72055;BME280;59936;51.490;5.436;2023-09-07T03:06:57;101731.00;;;16.01;78.31
72055;BME280;59936;51.490;5.436;2023-09-07T03:09:25;101730.16;;;16.01;78.33
72055;BME280;59936;51.490;5.436;2023-09-07T03:11:54;101731.16;;;16.00;78.36
72055;BME280;59936;51.490;5.436;2023-09-07T03:14:22;101734.06;;;15.98;78.43
72055;BME280;59936;51.490;5.436;2023-09-07T03:16:51;101730.50;;;15.98;78.46
72055;BME280;59936;51.490;5.436;2023-09-07T03:19:20;101741.13;;;15.99;78.52
72055;BME280;59936;51.490;5.436;2023-09-07T03:21:48;101741.13;;;15.99;78.52
72055;BME280;59936;51.490;5.436;2023-09-07T03:24:17;101736.25;;;15.95;78.65
72055;BME280;59936;51.490;5.436;2023-09-07T03:26:45;101735.59;;;15.93;78.65
72055;BME280;59936;51.490;5.436;2023-09-07T03:29:14;101732.91;;;15.93;78.66
72055;BME280;59936;51.490;5.436;2023-09-07T03:31:42;101732.06;;;15.92;78.74
72055;BME280;59936;51.490;5.436;2023-09-07T03:34:11;101729.34;;;15.92;78.79
72055;BME280;59936;51.490;5.436;2023-09-07T03:36:40;101729.34;;;15.92;78.81
72055;BME280;59936;51.490;5.436;2023-09-07T03:39:08;101732.22;;;15.91;78.86
72055;BME280;59936;51.490;5.436;2023-09-07T03:41:37;101730.56;;;15.90;78.97
72055;BME280;59936;51.490;5.436;2023-09-07T03:44:05;101735.31;;;15.88;79.15
72055;BME280;59936;51.490;5.436;2023-09-07T03:46:34;101752.19;;;15.90;79.06
72055;BME280;59936;51.490;5.436;2023-09-07T03:49:03;101752.19;;;15.90;79.06
72055;BME280;59936;51.490;5.436;2023-09-07T03:51:32;101743.59;;;15.86;79.11
72055;BME280;59936;51.490;5.436;2023-09-07T03:54:00;101743.75;;;15.85;79.01
72055;BME280;59936;51.490;5.436;2023-09-07T03:56:29;101741.06;;;15.85;79.00
72055;BME280;59936;51.490;5.436;2023-09-07T03:58:58;101741.06;;;15.85;79.00
72055;BME280;59936;51.490;5.436;2023-09-07T04:01:26;101739.72;;;15.81;79.05
72055;BME280;59936;51.490;5.436;2023-09-07T04:03:55;101751.72;;;15.78;79.17
72055;BME280;59936;51.490;5.436;2023-09-07T04:06:23;101747.50;;;15.76;79.25
72055;BME280;59936;51.490;5.436;2023-09-07T04:08:52;101743.31;;;15.73;79.48
72055;BME280;59936;51.490;5.436;2023-09-07T04:11:21;101754.47;;;15.70;79.71
72055;BME280;59936;51.490;5.436;2023-09-07T04:13:49;101748.41;;;15.68;79.71
72055;BME280;59936;51.490;5.436;2023-09-07T04:16:18;101743.66;;;15.70;79.44
72055;BME280;59936;51.490;5.436;2023-09-07T04:18:46;101743.66;;;15.70;79.44
72055;BME280;59936;51.490;5.436;2023-09-07T04:21:15;101747.75;;;15.66;79.42
72055;BME280;59936;51.490;5.436;2023-09-07T04:23:43;101740.84;;;15.63;79.41
72055;BME280;59936;51.490;5.436;2023-09-07T04:26:12;101744.56;;;15.62;79.36
72055;BME280;59936;51.490;5.436;2023-09-07T04:28:41;101748.13;;;15.63;79.44
72055;BME280;59936;51.490;5.436;2023-09-07T04:31:09;101738.50;;;15.60;79.43
72055;BME280;59936;51.490;5.436;2023-09-07T04:33:38;101751.34;;;15.58;79.46
72055;BME280;59936;51.490;5.436;2023-09-07T04:36:14;101750.66;;;15.56;79.64
72055;BME280;59936;51.490;5.436;2023-09-07T04:38:42;101750.84;;;15.55;79.65
72055;BME280;59936;51.490;5.436;2023-09-07T04:41:13;101753.78;;;15.45;80.03
72055;BME280;59936;51.490;5.436;2023-09-07T04:43:43;101752.38;;;15.49;79.53
72055;BME280;59936;51.490;5.436;2023-09-07T04:46:12;101751.38;;;15.50;79.25
72055;BME280;59936;51.490;5.436;2023-09-07T04:48:41;101751.38;;;15.50;79.25
72055;BME280;59936;51.490;5.436;2023-09-07T04:51:10;101750.25;;;15.45;79.24
72055;BME280;59936;51.490;5.436;2023-09-07T04:53:39;101747.53;;;15.45;79.20
72055;BME280;59936;51.490;5.436;2023-09-07T04:56:08;101741.28;;;15.44;79.24
72055;BME280;59936;51.490;5.436;2023-09-07T04:58:37;101748.06;;;15.40;79.32
72055;BME280;59936;51.490;5.436;2023-09-07T05:01:07;101750.09;;;15.38;79.49
72055;BME280;59936;51.490;5.436;2023-09-07T05:03:37;101751.09;;;15.37;79.66
72055;BME280;59936;51.490;5.436;2023-09-07T05:06:06;101751.09;;;15.37;79.66
72055;BME280;59936;51.490;5.436;2023-09-07T05:08:35;101755.84;;;15.35;79.60
72055;BME280;59936;51.490;5.436;2023-09-07T05:11:04;101751.47;;;15.34;79.59
72055;BME280;59936;51.490;5.436;2023-09-07T05:13:33;101758.72;;;15.33;79.64
72055;BME280;59936;51.490;5.436;2023-09-07T05:16:01;101757.19;;;15.31;79.71
72055;BME280;59936;51.490;5.436;2023-09-07T05:18:30;101771.38;;;15.33;79.81
72055;BME280;59936;51.490;5.436;2023-09-07T05:20:59;101771.38;;;15.33;79.81
72055;BME280;59936;51.490;5.436;2023-09-07T05:23:27;101767.16;;;15.30;79.87
72055;BME280;59936;51.490;5.436;2023-09-07T05:25:56;101773.41;;;15.31;79.84
72055;BME280;59936;51.490;5.436;2023-09-07T05:28:24;101769.88;;;15.30;79.88
72055;BME280;59936;51.490;5.436;2023-09-07T05:30:53;101770.53;;;15.32;79.82
72055;BME280;59936;51.490;5.436;2023-09-07T05:33:22;101766.66;;;15.35;79.77
72055;BME280;59936;51.490;5.436;2023-09-07T05:35:50;101768.31;;;15.36;79.74
72055;BME280;59936;51.490;5.436;2023-09-07T05:38:20;101770.00;;;15.37;79.74
72055;BME280;59936;51.490;5.436;2023-09-07T05:40:48;101769.00;;;15.38;79.82
72055;BME280;59936;51.490;5.436;2023-09-07T05:43:17;101764.25;;;15.40;79.84
72055;BME280;59936;51.490;5.436;2023-09-07T05:45:45;101772.03;;;15.43;79.81
72055;BME280;59936;51.490;5.436;2023-09-07T05:48:14;101774.56;;;15.45;79.88
72055;BME280;59936;51.490;5.436;2023-09-07T05:50:43;101783.78;;;15.50;79.83
72055;BME280;59936;51.490;5.436;2023-09-07T05:53:12;101778.88;;;15.54;79.86
72055;BME280;59936;51.490;5.436;2023-09-07T05:55:41;101775.81;;;15.57;79.84
72055;BME280;59936;51.490;5.436;2023-09-07T05:58:09;101776.31;;;15.60;79.92
72055;BME280;59936;51.490;5.436;2023-09-07T06:00:38;101777.84;;;15.63;79.96
72055;BME280;59936;51.490;5.436;2023-09-07T06:03:07;101783.53;;;15.68;79.99
72055;BME280;59936;51.490;5.436;2023-09-07T06:05:37;101785.53;;;15.74;79.96
72055;BME280;59936;51.490;5.436;2023-09-07T06:08:06;101786.84;;;15.78;80.05
72055;BME280;59936;51.490;5.436;2023-09-07T06:10:35;101802.38;;;15.84;80.12
72055;BME280;59936;51.490;5.436;2023-09-07T06:13:03;101800.66;;;15.91;80.08
72055;BME280;59936;51.490;5.436;2023-09-07T06:15:32;101797.75;;;16.01;80.29
72055;BME280;59936;51.490;5.436;2023-09-07T06:18:01;101794.78;;;16.11;80.46
72055;BME280;59936;51.490;5.436;2023-09-07T06:20:29;101796.91;;;16.23;80.33
72055;BME280;59936;51.490;5.436;2023-09-07T06:22:58;101798.31;;;16.34;80.82
72055;BME280;59936;51.490;5.436;2023-09-07T06:25:26;101803.44;;;16.52;80.45
72055;BME280;59936;51.490;5.436;2023-09-07T06:27:55;101809.44;;;16.62;80.11
72055;BME280;59936;51.490;5.436;2023-09-07T06:30:24;101805.81;;;16.69;79.98
72055;BME280;59936;51.490;5.436;2023-09-07T06:32:52;101800.50;;;16.76;80.01
72055;BME280;59936;51.490;5.436;2023-09-07T06:35:21;101802.78;;;16.87;79.94
72055;BME280;59936;51.490;5.436;2023-09-07T06:37:49;101805.88;;;16.99;79.63
72055;BME280;59936;51.490;5.436;2023-09-07T06:40:18;101813.00;;;17.15;79.46
72055;BME280;59936;51.490;5.436;2023-09-07T06:42:47;101815.22;;;17.40;80.29
72055;BME280;59936;51.490;5.436;2023-09-07T06:45:15;101806.44;;;17.68;78.96
72055;BME280;59936;51.490;5.436;2023-09-07T06:47:44;101809.38;;;17.88;78.73
72055;BME280;59936;51.490;5.436;2023-09-07T06:50:12;101813.59;;;18.48;79.55
72055;BME280;59936;51.490;5.436;2023-09-07T06:52:41;101813.59;;;18.48;79.55
72055;BME280;59936;51.490;5.436;2023-09-07T06:55:09;101809.41;;;19.29;80.82
72055;BME280;59936;51.490;5.436;2023-09-07T06:57:38;101811.41;;;19.96;80.88
72055;BME280;59936;51.490;5.436;2023-09-07T07:00:07;101811.41;;;19.96;80.88
72055;BME280;59936;51.490;5.436;2023-09-07T07:02:36;101797.47;;;20.52;77.90
72055;BME280;59936;51.490;5.436;2023-09-07T07:05:05;101811.25;;;21.29;77.30
72055;BME280;59936;51.490;5.436;2023-09-07T07:07:34;101806.56;;;22.64;73.59
72055;BME280;59936;51.490;5.436;2023-09-07T07:10:03;101806.56;;;22.64;73.59
72055;BME280;59936;51.490;5.436;2023-09-07T07:12:32;101806.28;;;22.97;71.41
72055;BME280;59936;51.490;5.436;2023-09-07T07:15:01;101805.97;;;23.66;70.78
72055;BME280;59936;51.490;5.436;2023-09-07T07:17:29;101805.59;;;24.52;68.00
72055;BME280;59936;51.490;5.436;2023-09-07T07:19:58;101801.84;;;25.35;65.55
72055;BME280;59936;51.490;5.436;2023-09-07T07:22:27;101811.63;;;25.83;64.14
72055;BME280;59936;51.490;5.436;2023-09-07T07:24:55;101812.44;;;26.40;62.59
72055;BME280;59936;51.490;5.436;2023-09-07T07:27:24;101809.06;;;26.05;61.39
72055;BME280;59936;51.490;5.436;2023-09-07T07:29:52;101808.38;;;26.93;59.84
72055;BME280;59936;51.490;5.436;2023-09-07T07:32:21;101802.69;;;27.38;59.15
72055;BME280;59936;51.490;5.436;2023-09-07T07:34:49;101801.00;;;28.03;57.11
72055;BME280;59936;51.490;5.436;2023-09-07T07:37:18;101805.59;;;28.19;56.58
72055;BME280;59936;51.490;5.436;2023-09-07T07:39:47;101798.94;;;28.42;56.08
72055;BME280;59936;51.490;5.436;2023-09-07T07:42:15;101800.22;;;28.98;54.49
72055;BME280;59936;51.490;5.436;2023-09-07T07:44:44;101800.22;;;28.98;54.49
72055;BME280;59936;51.490;5.436;2023-09-07T07:47:12;101801.50;;;29.22;54.00
72055;BME280;59936;51.490;5.436;2023-09-07T07:49:41;101799.25;;;29.19;52.98
72055;BME280;59936;51.490;5.436;2023-09-07T07:52:09;101797.19;;;29.00;54.19
72055;BME280;59936;51.490;5.436;2023-09-07T07:54:38;101803.78;;;28.56;53.49
72055;BME280;59936;51.490;5.436;2023-09-07T07:57:07;101799.78;;;29.16;53.87
72055;BME280;59936;51.490;5.436;2023-09-07T07:59:35;101793.31;;;29.43;52.60
72055;BME280;59936;51.490;5.436;2023-09-07T08:02:04;101793.63;;;29.56;52.21
72055;BME280;59936;51.490;5.436;2023-09-07T08:04:32;101794.69;;;30.48;49.47
72055;BME280;59936;51.490;5.436;2023-09-07T08:07:01;101794.69;;;30.48;49.47
72055;BME280;59936;51.490;5.436;2023-09-07T08:09:30;101789.66;;;29.27;49.61
72055;BME280;59936;51.490;5.436;2023-09-07T08:11:59;101782.19;;;29.27;51.13
72055;BME280;59936;51.490;5.436;2023-09-07T08:14:28;101782.69;;;29.82;50.50
72055;BME280;59936;51.490;5.436;2023-09-07T08:16:57;101781.22;;;29.59;50.37
72055;BME280;59936;51.490;5.436;2023-09-07T08:19:26;101777.56;;;30.36;49.69
72055;BME280;59936;51.490;5.436;2023-09-07T08:21:54;101771.72;;;30.88;48.16
72055;BME280;59936;51.490;5.436;2023-09-07T08:24:23;101772.56;;;30.69;48.78
72055;BME280;59936;51.490;5.436;2023-09-07T08:26:52;101772.56;;;30.69;48.78
72055;BME280;59936;51.490;5.436;2023-09-07T08:29:21;101767.88;;;30.34;48.07
72055;BME280;59936;51.490;5.436;2023-09-07T08:31:50;101759.31;;;30.35;48.43
72055;BME280;59936;51.490;5.436;2023-09-07T08:34:19;101757.06;;;30.62;47.73
72055;BME280;59936;51.490;5.436;2023-09-07T08:36:48;101756.53;;;30.45;47.56
72055;BME280;59936;51.490;5.436;2023-09-07T08:39:17;101754.91;;;30.39;47.45
72055;BME280;59936;51.490;5.436;2023-09-07T08:41:46;101759.25;;;30.05;46.98
72055;BME280;59936;51.490;5.436;2023-09-07T08:44:17;101755.94;;;29.92;47.83
72055;BME280;59936;51.490;5.436;2023-09-07T08:46:49;101755.66;;;30.95;46.75
72055;BME280;59936;51.490;5.436;2023-09-07T08:49:19;101747.09;;;30.82;46.47
72055;BME280;59936;51.490;5.436;2023-09-07T08:51:49;101749.34;;;30.44;45.54
72055;BME280;59936;51.490;5.436;2023-09-07T08:54:19;101747.41;;;30.29;46.15
72055;BME280;59936;51.490;5.436;2023-09-07T08:56:48;101754.56;;;30.25;46.60
72055;BME280;59936;51.490;5.436;2023-09-07T08:59:17;101750.38;;;29.72;45.95
72055;BME280;59936;51.490;5.436;2023-09-07T09:01:46;101752.81;;;29.69;46.25
72055;BME280;59936;51.490;5.436;2023-09-07T09:04:15;101747.28;;;29.06;46.05
72055;BME280;59936;51.490;5.436;2023-09-07T09:06:44;101749.28;;;29.16;46.36
72055;BME280;59936;51.490;5.436;2023-09-07T09:09:21;101749.28;;;29.16;46.36
72055;BME280;59936;51.490;5.436;2023-09-07T09:11:51;101741.66;;;28.86;44.80
72055;BME280;59936;51.490;5.436;2023-09-07T09:14:21;101740.59;;;28.97;45.31
72055;BME280;59936;51.490;5.436;2023-09-07T09:16:50;101745.13;;;29.13;45.27
72055;BME280;59936;51.490;5.436;2023-09-07T09:19:30;101744.00;;;29.82;45.09
72055;BME280;59936;51.490;5.436;2023-09-07T09:22:02;101748.47;;;30.08;42.57
72055;BME280;59936;51.490;5.436;2023-09-07T09:24:34;101743.28;;;30.32;43.90
72055;BME280;59936;51.490;5.436;2023-09-07T09:27:03;101749.88;;;29.95;42.64
72055;BME280;59936;51.490;5.436;2023-09-07T09:29:33;101743.78;;;30.09;44.26
72055;BME280;59936;51.490;5.436;2023-09-07T09:32:07;101736.91;;;30.37;43.92
72055;BME280;59936;51.490;5.436;2023-09-07T09:34:37;101737.13;;;30.81;43.55
72055;BME280;59936;51.490;5.436;2023-09-07T09:37:13;101733.81;;;30.79;43.06
72055;BME280;59936;51.490;5.436;2023-09-07T09:39:42;101734.06;;;30.92;40.67
72055;BME280;59936;51.490;5.436;2023-09-07T09:42:12;101729.38;;;30.88;44.13
72055;BME280;59936;51.490;5.436;2023-09-07T09:44:42;101729.41;;;31.57;42.81
72055;BME280;59936;51.490;5.436;2023-09-07T09:47:13;101731.16;;;31.33;42.74
72055;BME280;59936;51.490;5.436;2023-09-07T09:49:42;101724.66;;;30.93;42.28
72055;BME280;59936;51.490;5.436;2023-09-07T09:52:12;101725.84;;;30.16;43.13
72055;BME280;59936;51.490;5.436;2023-09-07T09:54:42;101725.25;;;30.80;43.13
72055;BME280;59936;51.490;5.436;2023-09-07T09:57:12;101722.09;;;31.12;43.14
72055;BME280;59936;51.490;5.436;2023-09-07T09:59:40;101720.09;;;31.82;41.99
72055;BME280;59936;51.490;5.436;2023-09-07T10:02:10;101720.56;;;31.99;42.36
72055;BME280;59936;51.490;5.436;2023-09-07T10:04:39;101719.22;;;31.48;41.89
72055;BME280;59936;51.490;5.436;2023-09-07T10:07:08;101721.13;;;30.47;42.17
72055;BME280;59936;51.490;5.436;2023-09-07T10:09:38;101703.09;;;30.75;43.95
72055;BME280;59936;51.490;5.436;2023-09-07T10:12:11;101713.41;;;31.44;42.12
72055;BME280;59936;51.490;5.436;2023-09-07T10:14:41;101711.78;;;31.28;41.51
72055;BME280;59936;51.490;5.436;2023-09-07T10:17:21;101704.38;;;31.18;41.98
72055;BME280;59936;51.490;5.436;2023-09-07T10:20:01;101711.63;;;31.04;38.64
72055;BME280;59936;51.490;5.436;2023-09-07T10:22:34;101713.31;;;31.00;41.08
72055;BME280;59936;51.490;5.436;2023-09-07T10:25:03;101712.28;;;31.40;41.15
72055;BME280;59936;51.490;5.436;2023-09-07T10:27:37;101703.72;;;31.86;40.54
72055;BME280;59936;51.490;5.436;2023-09-07T10:30:12;101704.72;;;32.05;40.78
72055;BME280;59936;51.490;5.436;2023-09-07T10:32:42;101701.63;;;32.12;39.01
72055;BME280;59936;51.490;5.436;2023-09-07T10:35:15;101700.84;;;32.35;41.58
72055;BME280;59936;51.490;5.436;2023-09-07T10:37:45;101701.66;;;33.17;41.08
72055;BME280;59936;51.490;5.436;2023-09-07T10:40:21;101697.53;;;33.15;40.17
72055;BME280;59936;51.490;5.436;2023-09-07T10:43:02;101693.56;;;32.97;40.90
72055;BME280;59936;51.490;5.436;2023-09-07T10:45:31;101692.94;;;33.00;38.94
72055;BME280;59936;51.490;5.436;2023-09-07T10:48:10;101697.91;;;32.55;41.51
72055;BME280;59936;51.490;5.436;2023-09-07T10:50:42;101690.72;;;32.49;41.52
72055;BME280;59936;51.490;5.436;2023-09-07T10:53:14;101688.69;;;32.84;41.72
72055;BME280;59936;51.490;5.436;2023-09-07T10:55:43;101688.69;;;32.84;41.72
72055;BME280;59936;51.490;5.436;2023-09-07T10:58:11;101679.44;;;33.17;42.14
72055;BME280;59936;51.490;5.436;2023-09-07T11:00:40;101676.66;;;33.60;41.10
72055;BME280;59936;51.490;5.436;2023-09-07T11:03:09;101670.06;;;33.88;40.03
72055;BME280;59936;51.490;5.436;2023-09-07T11:05:38;101675.50;;;33.80;40.52
72055;BME280;59936;51.490;5.436;2023-09-07T11:08:07;101675.59;;;34.07;40.54
72055;BME280;59936;51.490;5.436;2023-09-07T11:10:36;101669.97;;;33.61;40.24
72055;BME280;59936;51.490;5.436;2023-09-07T11:13:05;101667.38;;;32.79;40.69
72055;BME280;59936;51.490;5.436;2023-09-07T11:15:34;101667.38;;;32.79;40.69
72055;BME280;59936;51.490;5.436;2023-09-07T11:18:07;101672.00;;;32.65;41.88
72055;BME280;59936;51.490;5.436;2023-09-07T11:20:37;101666.69;;;32.11;40.12
72055;BME280;59936;51.490;5.436;2023-09-07T11:23:05;101666.25;;;31.93;40.74
72055;BME280;59936;51.490;5.436;2023-09-07T11:25:38;101672.50;;;31.70;41.92
72055;BME280;59936;51.490;5.436;2023-09-07T11:28:08;101658.59;;;32.14;41.60
72055;BME280;59936;51.490;5.436;2023-09-07T11:30:48;101653.94;;;32.39;40.49
72055;BME280;59936;51.490;5.436;2023-09-07T11:33:17;101663.00;;;31.47;40.57
72055;BME280;59936;51.490;5.436;2023-09-07T11:35:46;101664.38;;;31.40;40.41
72055;BME280;59936;51.490;5.436;2023-09-07T11:38:16;101669.09;;;31.44;40.57
72055;BME280;59936;51.490;5.436;2023-09-07T11:40:45;101669.09;;;31.44;40.57
72055;BME280;59936;51.490;5.436;2023-09-07T11:43:15;101674.47;;;32.66;39.22
72055;BME280;59936;51.490;5.436;2023-09-07T11:45:46;101674.47;;;32.66;39.22
72055;BME280;59936;51.490;5.436;2023-09-07T11:48:15;101663.94;;;32.11;39.20
72055;BME280;59936;51.490;5.436;2023-09-07T11:50:43;101663.91;;;31.72;39.90
72055;BME280;59936;51.490;5.436;2023-09-07T11:53:12;101667.09;;;31.50;40.12
72055;BME280;59936;51.490;5.436;2023-09-07T11:55:41;101656.25;;;31.58;40.59
72055;BME280;59936;51.490;5.436;2023-09-07T11:58:09;101648.53;;;31.55;40.30
72055;BME280;59936;51.490;5.436;2023-09-07T12:00:38;101643.72;;;32.05;39.58
72055;BME280;59936;51.490;5.436;2023-09-07T12:03:06;101648.63;;;32.13;38.64
72055;BME280;59936;51.490;5.436;2023-09-07T12:05:35;101649.13;;;32.20;38.75
72055;BME280;59936;51.490;5.436;2023-09-07T12:08:04;101647.47;;;31.85;39.96
72055;BME280;59936;51.490;5.436;2023-09-07T12:10:33;101647.47;;;31.85;39.96
72055;BME280;59936;51.490;5.436;2023-09-07T12:13:02;101639.19;;;31.46;40.56
72055;BME280;59936;51.490;5.436;2023-09-07T12:15:30;101642.84;;;31.76;40.03
72055;BME280;59936;51.490;5.436;2023-09-07T12:17:59;101631.13;;;31.84;40.06
72055;BME280;59936;51.490;5.436;2023-09-07T12:20:28;101632.69;;;31.95;40.05
72055;BME280;59936;51.490;5.436;2023-09-07T12:22:56;101638.09;;;31.81;39.42
72055;BME280;59936;51.490;5.436;2023-09-07T12:25:25;101642.25;;;31.45;39.15
72055;BME280;59936;51.490;5.436;2023-09-07T12:27:53;101631.31;;;31.14;39.30
72055;BME280;59936;51.490;5.436;2023-09-07T12:30:22;101629.78;;;31.37;40.27
72055;BME280;59936;51.490;5.436;2023-09-07T12:32:51;101629.78;;;31.37;40.27
72055;BME280;59936;51.490;5.436;2023-09-07T12:35:20;101616.13;;;31.51;39.46
72055;BME280;59936;51.490;5.436;2023-09-07T12:37:49;101622.47;;;31.56;39.62
72055;BME280;59936;51.490;5.436;2023-09-07T12:40:17;101618.84;;;31.61;40.02
72055;BME280;59936;51.490;5.436;2023-09-07T12:42:46;101613.75;;;31.29;39.48
72055;BME280;59936;51.490;5.436;2023-09-07T12:45:14;101612.88;;;31.44;39.55
72055;BME280;59936;51.490;5.436;2023-09-07T12:47:43;101623.69;;;31.45;39.49
72055;BME280;59936;51.490;5.436;2023-09-07T12:50:12;101621.47;;;31.42;39.29
72055;BME280;59936;51.490;5.436;2023-09-07T12:52:41;101614.94;;;31.23;39.28
72055;BME280;59936;51.490;5.436;2023-09-07T12:55:09;101611.19;;;31.48;40.10
72055;BME280;59936;51.490;5.436;2023-09-07T12:57:38;101603.25;;;32.04;39.25
72055;BME280;59936;51.490;5.436;2023-09-07T13:00:07;101602.06;;;32.39;39.08
72055;BME280;59936;51.490;5.436;2023-09-07T13:02:36;101603.94;;;32.20;39.31